sensor_id;sensor_type;location;lat;lon;timestamp;P1;durP1;ratioP1;P2;durP2;ratioP2
60919;SDS011;59039;52.108;19.942;2023-02-28T00:01:09;160.70;;;56.20;;
60919;SDS011;59039;52.108;19.942;2023-02-28T00:03:34;169.00;;;62.70;;
60919;SDS011;59039;52.108;19.942;2023-02-28T00:06:09;155.30;;;58.50;;
60919;SDS011;59039;52.108;19.942;2023-02-28T00:08:37;161.50;;;55.10;;
60919;SDS011;59039;52.108;19.942;2023-02-28T00:11:05;118.40;;;49.20;;
60919;SDS011;59039;52.108;19.942;2023-02-28T00:13:35;115.10;;;46.60;;
60919;SDS011;59039;52.108;19.942;2023-02-28T00:16:03;116.50;;;45.00;;
60919;SDS011;59039;52.108;19.942;2023-02-28T00:18:43;118.90;;;43.80;;
60919;SDS011;59039;52.108;19.942;2023-02-28T00:21:09;110.20;;;41.80;;
60919;SDS011;59039;52.108;19.942;2023-02-28T00:23:37;95.50;;;39.90;;
60919;SDS011;59039;52.108;19.942;2023-02-28T00:26:02;99.50;;;39.80;;
60919;SDS011;59039;52.108;19.942;2023-02-28T00:28:30;107.00;;;42.20;;
60919;SDS011;59039;52.108;19.942;2023-02-28T00:31:16;102.10;;;42.90;;
60919;SDS011;59039;52.108;19.942;2023-02-28T00:33:44;105.60;;;42.10;;
60919;SDS011;59039;52.108;19.942;2023-02-28T00:36:12;102.80;;;43.50;;
60919;SDS011;59039;52.108;19.942;2023-02-28T00:38:38;112.60;;;43.40;;
60919;SDS011;59039;52.108;19.942;2023-02-28T00:41:07;108.30;;;44.30;;
60919;SDS011;59039;52.108;19.942;2023-02-28T00:43:38;95.40;;;42.30;;
60919;SDS011;59039;52.108;19.942;2023-02-28T00:46:04;107.00;;;44.30;;
60919;SDS011;59039;52.108;19.942;2023-02-28T00:48:30;112.70;;;44.40;;
60919;SDS011;59039;52.108;19.942;2023-02-28T00:50:55;127.20;;;47.00;;
60919;SDS011;59039;52.108;19.942;2023-02-28T00:53:21;135.30;;;45.20;;
60919;SDS011;59039;52.108;19.942;2023-02-28T00:55:48;109.50;;;44.80;;
60919;SDS011;59039;52.108;19.942;2023-02-28T00:58:14;109.90;;;43.90;;
60919;SDS011;59039;52.108;19.942;2023-02-28T01:00:40;115.70;;;46.10;;
60919;SDS011;59039;52.108;19.942;2023-02-28T01:03:17;107.00;;;42.50;;
60919;SDS011;59039;52.108;19.942;2023-02-28T01:05:44;126.60;;;47.90;;
60919;SDS011;59039;52.108;19.942;2023-02-28T01:08:10;122.20;;;45.80;;
60919;SDS011;59039;52.108;19.942;2023-02-28T01:10:36;113.80;;;44.50;;
60919;SDS011;59039;52.108;19.942;2023-02-28T01:13:21;112.80;;;44.30;;
60919;SDS011;59039;52.108;19.942;2023-02-28T01:15:51;115.50;;;43.90;;
60919;SDS011;59039;52.108;19.942;2023-02-28T01:18:21;121.70;;;44.80;;
60919;SDS011;59039;52.108;19.942;2023-02-28T01:20:47;124.40;;;44.40;;
60919;SDS011;59039;52.108;19.942;2023-02-28T01:23:13;112.70;;;44.20;;
60919;SDS011;59039;52.108;19.942;2023-02-28T01:25:39;111.40;;;43.70;;
60919;SDS011;59039;52.108;19.942;2023-02-28T01:28:07;111.90;;;42.30;;
60919;SDS011;59039;52.108;19.942;2023-02-28T01:30:32;101.10;;;40.00;;
60919;SDS011;59039;52.108;19.942;2023-02-28T01:32:58;88.00;;;39.20;;
60919;SDS011;59039;52.108;19.942;2023-02-28T01:35:24;106.80;;;41.80;;
60919;SDS011;59039;52.108;19.942;2023-02-28T01:37:49;123.00;;;47.00;;
60919;SDS011;59039;52.108;19.942;2023-02-28T01:40:15;139.70;;;49.90;;
60919;SDS011;59039;52.108;19.942;2023-02-28T01:42:40;133.90;;;49.70;;
60919;SDS011;59039;52.108;19.942;2023-02-28T01:48:09;123.90;;;45.50;;
60919;SDS011;59039;52.108;19.942;2023-02-28T01:50:37;121.10;;;45.10;;
60919;SDS011;59039;52.108;19.942;2023-02-28T01:53:10;119.90;;;45.70;;
60919;SDS011;59039;52.108;19.942;2023-02-28T01:55:47;101.80;;;40.10;;
60919;SDS011;59039;52.108;19.942;2023-02-28T01:58:15;119.50;;;42.70;;
60919;SDS011;59039;52.108;19.942;2023-02-28T02:00:41;112.80;;;44.00;;
60919;SDS011;59039;52.108;19.942;2023-02-28T02:03:08;106.10;;;42.70;;
60919;SDS011;59039;52.108;19.942;2023-02-28T02:05:36;107.40;;;44.70;;
60919;SDS011;59039;52.108;19.942;2023-02-28T02:08:06;112.70;;;41.50;;
60919;SDS011;59039;52.108;19.942;2023-02-28T02:10:48;99.80;;;39.90;;
60919;SDS011;59039;52.108;19.942;2023-02-28T02:19:35;110.10;;;43.00;;
60919;SDS011;59039;52.108;19.942;2023-02-28T02:27:57;117.30;;;42.80;;
60919;SDS011;59039;52.108;19.942;2023-02-28T02:35:43;105.20;;;42.00;;
60919;SDS011;59039;52.108;19.942;2023-02-28T02:38:34;108.80;;;41.80;;
60919;SDS011;59039;52.108;19.942;2023-02-28T02:47:09;113.80;;;42.60;;
60919;SDS011;59039;52.108;19.942;2023-02-28T02:49:42;115.00;;;45.60;;
60919;SDS011;59039;52.108;19.942;2023-02-28T02:52:22;118.30;;;44.80;;
60919;SDS011;59039;52.108;19.942;2023-02-28T02:55:14;120.80;;;47.00;;
60919;SDS011;59039;52.108;19.942;2023-02-28T02:57:49;125.60;;;47.50;;
60919;SDS011;59039;52.108;19.942;2023-02-28T03:00:26;119.10;;;46.10;;
60919;SDS011;59039;52.108;19.942;2023-02-28T03:02:57;144.90;;;49.60;;
60919;SDS011;59039;52.108;19.942;2023-02-28T03:05:25;135.20;;;50.70;;
60919;SDS011;59039;52.108;19.942;2023-02-28T03:07:55;138.20;;;48.50;;
60919;SDS011;59039;52.108;19.942;2023-02-28T03:13:45;134.60;;;50.70;;
60919;SDS011;59039;52.108;19.942;2023-02-28T03:19:41;125.10;;;47.50;;
60919;SDS011;59039;52.108;19.942;2023-02-28T03:25:32;121.80;;;46.20;;
60919;SDS011;59039;52.108;19.942;2023-02-28T03:28:19;137.60;;;47.40;;
60919;SDS011;59039;52.108;19.942;2023-02-28T03:31:03;143.50;;;50.00;;
60919;SDS011;59039;52.108;19.942;2023-02-28T03:34:00;142.10;;;49.60;;
60919;SDS011;59039;52.108;19.942;2023-02-28T03:36:36;153.90;;;49.00;;
60919;SDS011;59039;52.108;19.942;2023-02-28T03:39:05;130.40;;;49.60;;
60919;SDS011;59039;52.108;19.942;2023-02-28T03:41:38;141.90;;;53.40;;
60919;SDS011;59039;52.108;19.942;2023-02-28T03:49:46;136.20;;;47.60;;
60919;SDS011;59039;52.108;19.942;2023-02-28T03:52:19;141.70;;;49.70;;
60919;SDS011;59039;52.108;19.942;2023-02-28T03:55:11;133.20;;;49.60;;
60919;SDS011;59039;52.108;19.942;2023-02-28T03:57:43;130.00;;;47.60;;
60919;SDS011;59039;52.108;19.942;2023-02-28T04:00:21;136.40;;;51.80;;
60919;SDS011;59039;52.108;19.942;2023-02-28T04:02:57;134.60;;;49.40;;
60919;SDS011;59039;52.108;19.942;2023-02-28T04:05:28;134.90;;;50.20;;
60919;SDS011;59039;52.108;19.942;2023-02-28T04:08:02;134.10;;;52.20;;
60919;SDS011;59039;52.108;19.942;2023-02-28T04:13:10;130.70;;;47.80;;
60919;SDS011;59039;52.108;19.942;2023-02-28T04:15:35;133.50;;;51.80;;
60919;SDS011;59039;52.108;19.942;2023-02-28T04:18:01;136.30;;;50.80;;
60919;SDS011;59039;52.108;19.942;2023-02-28T04:20:26;142.50;;;52.90;;
60919;SDS011;59039;52.108;19.942;2023-02-28T04:23:01;136.70;;;50.50;;
60919;SDS011;59039;52.108;19.942;2023-02-28T04:27:55;110.20;;;43.60;;
60919;SDS011;59039;52.108;19.942;2023-02-28T04:30:20;141.30;;;48.10;;
60919;SDS011;59039;52.108;19.942;2023-02-28T04:32:51;127.40;;;50.10;;
60919;SDS011;59039;52.108;19.942;2023-02-28T04:35:16;141.60;;;50.90;;
60919;SDS011;59039;52.108;19.942;2023-02-28T04:37:47;134.10;;;49.80;;
60919;SDS011;59039;52.108;19.942;2023-02-28T04:40:13;137.60;;;53.60;;
60919;SDS011;59039;52.108;19.942;2023-02-28T04:42:38;140.50;;;54.40;;
60919;SDS011;59039;52.108;19.942;2023-02-28T04:45:04;153.60;;;53.90;;
60919;SDS011;59039;52.108;19.942;2023-02-28T04:47:30;139.30;;;51.90;;
60919;SDS011;59039;52.108;19.942;2023-02-28T04:49:58;135.10;;;51.50;;
60919;SDS011;59039;52.108;19.942;2023-02-28T04:52:24;134.10;;;54.30;;
60919;SDS011;59039;52.108;19.942;2023-02-28T04:54:52;146.10;;;53.70;;
60919;SDS011;59039;52.108;19.942;2023-02-28T04:57:17;147.30;;;54.90;;
60919;SDS011;59039;52.108;19.942;2023-02-28T04:59:42;136.20;;;53.20;;
60919;SDS011;59039;52.108;19.942;2023-02-28T05:02:11;131.20;;;51.90;;
60919;SDS011;59039;52.108;19.942;2023-02-28T05:04:39;150.00;;;53.60;;
60919;SDS011;59039;52.108;19.942;2023-02-28T05:07:05;149.70;;;55.00;;
60919;SDS011;59039;52.108;19.942;2023-02-28T05:09:36;145.80;;;52.40;;
60919;SDS011;59039;52.108;19.942;2023-02-28T05:12:01;145.60;;;53.70;;
60919;SDS011;59039;52.108;19.942;2023-02-28T05:14:27;142.70;;;55.50;;
60919;SDS011;59039;52.108;19.942;2023-02-28T05:16:52;143.30;;;55.50;;
60919;SDS011;59039;52.108;19.942;2023-02-28T05:19:17;138.10;;;54.40;;
60919;SDS011;59039;52.108;19.942;2023-02-28T05:21:53;147.90;;;55.10;;
60919;SDS011;59039;52.108;19.942;2023-02-28T05:24:19;141.50;;;52.90;;
60919;SDS011;59039;52.108;19.942;2023-02-28T05:26:45;147.60;;;55.90;;
60919;SDS011;59039;52.108;19.942;2023-02-28T05:29:10;158.60;;;57.70;;
60919;SDS011;59039;52.108;19.942;2023-02-28T05:31:36;142.60;;;55.40;;
60919;SDS011;59039;52.108;19.942;2023-02-28T05:34:01;156.40;;;56.60;;
60919;SDS011;59039;52.108;19.942;2023-02-28T05:36:27;151.10;;;55.60;;
60919;SDS011;59039;52.108;19.942;2023-02-28T05:38:53;158.10;;;58.00;;
60919;SDS011;59039;52.108;19.942;2023-02-28T05:41:19;150.10;;;57.80;;
60919;SDS011;59039;52.108;19.942;2023-02-28T05:43:45;154.10;;;56.90;;
60919;SDS011;59039;52.108;19.942;2023-02-28T05:46:11;150.10;;;57.00;;
60919;SDS011;59039;52.108;19.942;2023-02-28T05:48:38;162.10;;;58.10;;
60919;SDS011;59039;52.108;19.942;2023-02-28T05:51:05;161.00;;;58.60;;
60919;SDS011;59039;52.108;19.942;2023-02-28T05:53:31;159.10;;;62.50;;
60919;SDS011;59039;52.108;19.942;2023-02-28T05:55:57;175.20;;;60.40;;
60919;SDS011;59039;52.108;19.942;2023-02-28T05:58:23;186.60;;;65.40;;
60919;SDS011;59039;52.108;19.942;2023-02-28T06:00:49;218.70;;;74.80;;
60919;SDS011;59039;52.108;19.942;2023-02-28T06:03:15;199.70;;;72.60;;
60919;SDS011;59039;52.108;19.942;2023-02-28T06:05:43;218.10;;;76.20;;
60919;SDS011;59039;52.108;19.942;2023-02-28T06:08:08;225.70;;;75.90;;
60919;SDS011;59039;52.108;19.942;2023-02-28T06:10:37;204.20;;;68.10;;
60919;SDS011;59039;52.108;19.942;2023-02-28T06:13:03;193.90;;;66.90;;
60919;SDS011;59039;52.108;19.942;2023-02-28T06:15:29;195.10;;;70.10;;
60919;SDS011;59039;52.108;19.942;2023-02-28T06:18:04;286.70;;;84.50;;
60919;SDS011;59039;52.108;19.942;2023-02-28T06:20:29;273.70;;;84.10;;
60919;SDS011;59039;52.108;19.942;2023-02-28T06:22:57;224.90;;;73.00;;
60919;SDS011;59039;52.108;19.942;2023-02-28T06:25:23;151.70;;;54.80;;
60919;SDS011;59039;52.108;19.942;2023-02-28T06:27:49;167.80;;;61.20;;
60919;SDS011;59039;52.108;19.942;2023-02-28T06:30:15;181.20;;;60.40;;
60919;SDS011;59039;52.108;19.942;2023-02-28T06:32:40;163.80;;;61.30;;
60919;SDS011;59039;52.108;19.942;2023-02-28T06:35:06;144.90;;;58.40;;
60919;SDS011;59039;52.108;19.942;2023-02-28T06:37:32;175.10;;;61.10;;
60919;SDS011;59039;52.108;19.942;2023-02-28T06:39:57;172.90;;;62.60;;
60919;SDS011;59039;52.108;19.942;2023-02-28T06:42:26;184.80;;;64.40;;
60919;SDS011;59039;52.108;19.942;2023-02-28T06:44:55;185.30;;;66.30;;
60919;SDS011;59039;52.108;19.942;2023-02-28T06:47:24;212.00;;;71.70;;
60919;SDS011;59039;52.108;19.942;2023-02-28T06:49:49;219.90;;;79.60;;
60919;SDS011;59039;52.108;19.942;2023-02-28T06:52:15;244.50;;;87.40;;
60919;SDS011;59039;52.108;19.942;2023-02-28T06:54:41;251.90;;;93.90;;
60919;SDS011;59039;52.108;19.942;2023-02-28T06:57:07;274.80;;;91.20;;
60919;SDS011;59039;52.108;19.942;2023-02-28T06:59:35;257.30;;;87.20;;
60919;SDS011;59039;52.108;19.942;2023-02-28T07:02:19;213.00;;;75.90;;
60919;SDS011;59039;52.108;19.942;2023-02-28T07:04:45;192.40;;;67.50;;
60919;SDS011;59039;52.108;19.942;2023-02-28T07:07:10;200.60;;;68.70;;
60919;SDS011;59039;52.108;19.942;2023-02-28T07:09:39;206.80;;;69.10;;
60919;SDS011;59039;52.108;19.942;2023-02-28T07:12:04;214.90;;;70.50;;
60919;SDS011;59039;52.108;19.942;2023-02-28T07:14:29;194.40;;;68.30;;
60919;SDS011;59039;52.108;19.942;2023-02-28T07:16:55;208.80;;;71.80;;
60919;SDS011;59039;52.108;19.942;2023-02-28T07:19:20;198.40;;;73.00;;
60919;SDS011;59039;52.108;19.942;2023-02-28T07:21:56;198.70;;;69.20;;
60919;SDS011;59039;52.108;19.942;2023-02-28T07:26:57;193.80;;;64.60;;
60919;SDS011;59039;52.108;19.942;2023-02-28T07:29:23;219.90;;;77.30;;
60919;SDS011;59039;52.108;19.942;2023-02-28T07:31:48;222.20;;;79.40;;
60919;SDS011;59039;52.108;19.942;2023-02-28T07:34:14;207.50;;;69.90;;
60919;SDS011;59039;52.108;19.942;2023-02-28T07:36:39;167.40;;;58.30;;
60919;SDS011;59039;52.108;19.942;2023-02-28T07:39:05;157.00;;;57.90;;
60919;SDS011;59039;52.108;19.942;2023-02-28T07:41:30;170.70;;;63.20;;
60919;SDS011;59039;52.108;19.942;2023-02-28T07:43:59;162.80;;;61.50;;
60919;SDS011;59039;52.108;19.942;2023-02-28T07:46:25;167.90;;;62.70;;
60919;SDS011;59039;52.108;19.942;2023-02-28T07:48:51;198.20;;;64.50;;
60919;SDS011;59039;52.108;19.942;2023-02-28T07:51:16;136.90;;;50.10;;
60919;SDS011;59039;52.108;19.942;2023-02-28T07:53:42;118.60;;;46.70;;
60919;SDS011;59039;52.108;19.942;2023-02-28T07:56:27;120.00;;;48.30;;
60919;SDS011;59039;52.108;19.942;2023-02-28T07:58:53;115.20;;;41.40;;
60919;SDS011;59039;52.108;19.942;2023-02-28T08:01:18;90.10;;;35.90;;
60919;SDS011;59039;52.108;19.942;2023-02-28T08:03:44;68.70;;;30.50;;
60919;SDS011;59039;52.108;19.942;2023-02-28T08:06:14;65.90;;;29.90;;
60919;SDS011;59039;52.108;19.942;2023-02-28T08:08:46;74.30;;;28.10;;
60919;SDS011;59039;52.108;19.942;2023-02-28T08:11:15;64.50;;;28.30;;
60919;SDS011;59039;52.108;19.942;2023-02-28T08:13:42;50.00;;;23.90;;
60919;SDS011;59039;52.108;19.942;2023-02-28T08:16:15;61.50;;;25.70;;
60919;SDS011;59039;52.108;19.942;2023-02-28T08:18:40;58.30;;;27.20;;
60919;SDS011;59039;52.108;19.942;2023-02-28T08:21:06;71.60;;;30.70;;
60919;SDS011;59039;52.108;19.942;2023-02-28T08:23:33;86.40;;;32.20;;
60919;SDS011;59039;52.108;19.942;2023-02-28T08:25:58;76.90;;;30.60;;
60919;SDS011;59039;52.108;19.942;2023-02-28T08:28:24;66.10;;;26.90;;
60919;SDS011;59039;52.108;19.942;2023-02-28T08:30:49;70.00;;;30.00;;
60919;SDS011;59039;52.108;19.942;2023-02-28T08:33:17;122.40;;;43.50;;
60919;SDS011;59039;52.108;19.942;2023-02-28T08:35:43;98.70;;;31.80;;
60919;SDS011;59039;52.108;19.942;2023-02-28T08:38:08;137.10;;;42.60;;
60919;SDS011;59039;52.108;19.942;2023-02-28T08:40:34;117.50;;;37.30;;
60919;SDS011;59039;52.108;19.942;2023-02-28T08:42:59;57.80;;;21.30;;
60919;SDS011;59039;52.108;19.942;2023-02-28T08:45:25;45.80;;;21.10;;
60919;SDS011;59039;52.108;19.942;2023-02-28T08:47:50;43.50;;;19.60;;
60919;SDS011;59039;52.108;19.942;2023-02-28T08:50:15;43.30;;;16.80;;
60919;SDS011;59039;52.108;19.942;2023-02-28T08:52:44;31.90;;;16.00;;
60919;SDS011;59039;52.108;19.942;2023-02-28T08:55:09;41.20;;;19.90;;
60919;SDS011;59039;52.108;19.942;2023-02-28T08:57:35;21.80;;;12.40;;
60919;SDS011;59039;52.108;19.942;2023-02-28T09:00:00;21.60;;;11.70;;
60919;SDS011;59039;52.108;19.942;2023-02-28T09:02:27;26.00;;;12.50;;
60919;SDS011;59039;52.108;19.942;2023-02-28T09:04:52;29.70;;;13.00;;
60919;SDS011;59039;52.108;19.942;2023-02-28T09:07:17;24.30;;;11.30;;
60919;SDS011;59039;52.108;19.942;2023-02-28T09:09:43;23.60;;;11.60;;
60919;SDS011;59039;52.108;19.942;2023-02-28T09:12:08;26.00;;;12.60;;
60919;SDS011;59039;52.108;19.942;2023-02-28T09:14:34;27.40;;;10.60;;
60919;SDS011;59039;52.108;19.942;2023-02-28T09:16:59;24.10;;;11.00;;
60919;SDS011;59039;52.108;19.942;2023-02-28T09:19:25;22.00;;;11.20;;
60919;SDS011;59039;52.108;19.942;2023-02-28T09:21:50;21.70;;;11.70;;
60919;SDS011;59039;52.108;19.942;2023-02-28T09:24:15;21.60;;;11.90;;
60919;SDS011;59039;52.108;19.942;2023-02-28T09:26:41;24.90;;;12.40;;
60919;SDS011;59039;52.108;19.942;2023-02-28T09:29:06;24.30;;;11.80;;
60919;SDS011;59039;52.108;19.942;2023-02-28T09:31:32;28.20;;;14.20;;
60919;SDS011;59039;52.108;19.942;2023-02-28T09:34:00;31.20;;;16.10;;
60919;SDS011;59039;52.108;19.942;2023-02-28T09:36:26;22.80;;;11.60;;
60919;SDS011;59039;52.108;19.942;2023-02-28T09:38:52;28.20;;;13.30;;
60919;SDS011;59039;52.108;19.942;2023-02-28T09:41:19;19.50;;;11.10;;
60919;SDS011;59039;52.108;19.942;2023-02-28T09:43:49;20.50;;;9.70;;
60919;SDS011;59039;52.108;19.942;2023-02-28T09:46:27;19.70;;;10.00;;
60919;SDS011;59039;52.108;19.942;2023-02-28T09:48:57;18.30;;;9.90;;
60919;SDS011;59039;52.108;19.942;2023-02-28T09:51:39;19.20;;;9.40;;
60919;SDS011;59039;52.108;19.942;2023-02-28T09:54:05;21.30;;;10.20;;
60919;SDS011;59039;52.108;19.942;2023-02-28T09:56:37;16.20;;;8.80;;
60919;SDS011;59039;52.108;19.942;2023-02-28T10:05:27;15.50;;;8.00;;
60919;SDS011;59039;52.108;19.942;2023-02-28T10:08:19;20.80;;;9.00;;
60919;SDS011;59039;52.108;19.942;2023-02-28T10:11:09;16.70;;;9.50;;
60919;SDS011;59039;52.108;19.942;2023-02-28T10:13:50;21.10;;;10.70;;
60919;SDS011;59039;52.108;19.942;2023-02-28T10:16:19;19.20;;;9.40;;
60919;SDS011;59039;52.108;19.942;2023-02-28T10:18:54;23.10;;;10.80;;
60919;SDS011;59039;52.108;19.942;2023-02-28T10:21:35;21.20;;;10.60;;
60919;SDS011;59039;52.108;19.942;2023-02-28T10:24:19;23.10;;;11.10;;
60919;SDS011;59039;52.108;19.942;2023-02-28T10:26:48;23.30;;;10.80;;
60919;SDS011;59039;52.108;19.942;2023-02-28T10:29:16;23.90;;;11.90;;
60919;SDS011;59039;52.108;19.942;2023-02-28T10:31:41;23.80;;;12.10;;
60919;SDS011;59039;52.108;19.942;2023-02-28T10:34:07;40.40;;;17.30;;
60919;SDS011;59039;52.108;19.942;2023-02-28T10:36:36;23.70;;;11.90;;
60919;SDS011;59039;52.108;19.942;2023-02-28T10:42:22;26.20;;;13.00;;
60919;SDS011;59039;52.108;19.942;2023-02-28T10:45:11;29.10;;;13.60;;
60919;SDS011;59039;52.108;19.942;2023-02-28T10:56:23;23.40;;;12.50;;
60919;SDS011;59039;52.108;19.942;2023-02-28T11:01:41;20.70;;;9.90;;
60919;SDS011;59039;52.108;19.942;2023-02-28T11:04:19;17.80;;;8.30;;
60919;SDS011;59039;52.108;19.942;2023-02-28T11:07:19;19.40;;;9.50;;
60919;SDS011;59039;52.108;19.942;2023-02-28T11:09:46;17.00;;;9.70;;
60919;SDS011;59039;52.108;19.942;2023-02-28T11:12:30;20.90;;;11.00;;
60919;SDS011;59039;52.108;19.942;2023-02-28T11:15:03;18.40;;;10.40;;
60919;SDS011;59039;52.108;19.942;2023-02-28T11:17:31;22.60;;;11.60;;
60919;SDS011;59039;52.108;19.942;2023-02-28T11:20:06;26.70;;;12.40;;
60919;SDS011;59039;52.108;19.942;2023-02-28T11:22:43;20.10;;;9.20;;
60919;SDS011;59039;52.108;19.942;2023-02-28T11:25:24;20.00;;;9.80;;
60919;SDS011;59039;52.108;19.942;2023-02-28T11:27:59;19.60;;;9.90;;
60919;SDS011;59039;52.108;19.942;2023-02-28T11:30:33;24.10;;;11.60;;
60919;SDS011;59039;52.108;19.942;2023-02-28T11:34:11;20.80;;;10.60;;
60919;SDS011;59039;52.108;19.942;2023-02-28T11:36:17;21.60;;;10.70;;
60919;SDS011;59039;52.108;19.942;2023-02-28T11:38:46;25.30;;;10.90;;
60919;SDS011;59039;52.108;19.942;2023-02-28T11:47:09;21.40;;;10.00;;
60919;SDS011;59039;52.108;19.942;2023-02-28T11:50:26;23.50;;;11.10;;
60919;SDS011;59039;52.108;19.942;2023-02-28T11:52:45;26.60;;;11.20;;
60919;SDS011;59039;52.108;19.942;2023-02-28T11:55:33;25.00;;;11.70;;
60919;SDS011;59039;52.108;19.942;2023-02-28T12:06:50;27.40;;;13.00;;
60919;SDS011;59039;52.108;19.942;2023-02-28T12:18:00;20.20;;;11.30;;
60919;SDS011;59039;52.108;19.942;2023-02-28T12:21:01;23.50;;;10.80;;
60919;SDS011;59039;52.108;19.942;2023-02-28T12:23:52;22.10;;;12.40;;
60919;SDS011;59039;52.108;19.942;2023-02-28T12:27:00;22.50;;;11.50;;
60919;SDS011;59039;52.108;19.942;2023-02-28T12:29:32;25.80;;;11.30;;
60919;SDS011;59039;52.108;19.942;2023-02-28T12:34:53;31.70;;;15.10;;
60919;SDS011;59039;52.108;19.942;2023-02-28T12:37:31;27.10;;;12.20;;
60919;SDS011;59039;52.108;19.942;2023-02-28T12:40:03;27.40;;;13.70;;
60919;SDS011;59039;52.108;19.942;2023-02-28T12:47:40;34.60;;;14.50;;
60919;SDS011;59039;52.108;19.942;2023-02-28T12:50:10;32.90;;;15.30;;
60919;SDS011;59039;52.108;19.942;2023-02-28T12:52:47;30.70;;;15.30;;
60919;SDS011;59039;52.108;19.942;2023-02-28T13:00:38;32.80;;;16.50;;
60919;SDS011;59039;52.108;19.942;2023-02-28T13:09:14;32.00;;;14.40;;
60919;SDS011;59039;52.108;19.942;2023-02-28T13:11:49;27.80;;;13.60;;
60919;SDS011;59039;52.108;19.942;2023-02-28T13:19:33;32.30;;;15.50;;
60919;SDS011;59039;52.108;19.942;2023-02-28T13:22:02;34.70;;;16.60;;
60919;SDS011;59039;52.108;19.942;2023-02-28T13:24:40;36.30;;;16.70;;
60919;SDS011;59039;52.108;19.942;2023-02-28T13:27:37;30.20;;;14.00;;
60919;SDS011;59039;52.108;19.942;2023-02-28T13:38:47;29.20;;;14.80;;
60919;SDS011;59039;52.108;19.942;2023-02-28T13:44:11;35.60;;;16.70;;
60919;SDS011;59039;52.108;19.942;2023-02-28T13:49:31;29.70;;;15.00;;
60919;SDS011;59039;52.108;19.942;2023-02-28T13:58:18;29.30;;;13.10;;
60919;SDS011;59039;52.108;19.942;2023-02-28T14:07:23;32.60;;;14.70;;
60919;SDS011;59039;52.108;19.942;2023-02-28T14:09:57;30.30;;;13.90;;
60919;SDS011;59039;52.108;19.942;2023-02-28T14:20:18;32.90;;;15.10;;
60919;SDS011;59039;52.108;19.942;2023-02-28T14:25:36;43.10;;;22.10;;
60919;SDS011;59039;52.108;19.942;2023-02-28T14:37:00;30.40;;;12.40;;
60919;SDS011;59039;52.108;19.942;2023-02-28T14:39:28;37.60;;;16.10;;
60919;SDS011;59039;52.108;19.942;2023-02-28T14:41:55;31.20;;;16.50;;
60919;SDS011;59039;52.108;19.942;2023-02-28T14:44:40;27.80;;;11.50;;
60919;SDS011;59039;52.108;19.942;2023-02-28T14:47:11;28.90;;;13.40;;
60919;SDS011;59039;52.108;19.942;2023-02-28T14:49:46;28.00;;;14.20;;
60919;SDS011;59039;52.108;19.942;2023-02-28T14:52:20;78.60;;;28.20;;
60919;SDS011;59039;52.108;19.942;2023-02-28T14:54:54;87.10;;;29.90;;
60919;SDS011;59039;52.108;19.942;2023-02-28T14:57:31;58.70;;;20.80;;
60919;SDS011;59039;52.108;19.942;2023-02-28T15:03:23;32.20;;;15.00;;
60919;SDS011;59039;52.108;19.942;2023-02-28T15:08:38;29.10;;;13.70;;
60919;SDS011;59039;52.108;19.942;2023-02-28T15:11:04;38.00;;;15.40;;
60919;SDS011;59039;52.108;19.942;2023-02-28T15:13:42;38.20;;;16.60;;
60919;SDS011;59039;52.108;19.942;2023-02-28T15:16:23;46.00;;;20.50;;
60919;SDS011;59039;52.108;19.942;2023-02-28T15:19:13;46.20;;;20.40;;
60919;SDS011;59039;52.108;19.942;2023-02-28T15:21:45;45.70;;;19.70;;
60919;SDS011;59039;52.108;19.942;2023-02-28T15:24:16;45.50;;;20.60;;
60919;SDS011;59039;52.108;19.942;2023-02-28T15:26:55;38.00;;;17.20;;
60919;SDS011;59039;52.108;19.942;2023-02-28T15:29:27;37.80;;;17.60;;
60919;SDS011;59039;52.108;19.942;2023-02-28T15:31:57;51.00;;;21.90;;
60919;SDS011;59039;52.108;19.942;2023-02-28T15:37:06;53.60;;;22.60;;
60919;SDS011;59039;52.108;19.942;2023-02-28T15:39:50;42.90;;;20.50;;
60919;SDS011;59039;52.108;19.942;2023-02-28T15:42:29;46.90;;;21.10;;
60919;SDS011;59039;52.108;19.942;2023-02-28T15:44:55;42.60;;;18.10;;
60919;SDS011;59039;52.108;19.942;2023-02-28T15:49:54;34.90;;;16.70;;
60919;SDS011;59039;52.108;19.942;2023-02-28T15:52:42;42.20;;;17.70;;
60919;SDS011;59039;52.108;19.942;2023-02-28T15:55:28;33.70;;;16.10;;
60919;SDS011;59039;52.108;19.942;2023-02-28T15:58:02;36.10;;;15.80;;
60919;SDS011;59039;52.108;19.942;2023-02-28T16:00:29;36.00;;;15.90;;
60919;SDS011;59039;52.108;19.942;2023-02-28T16:09:09;35.00;;;16.40;;
60919;SDS011;59039;52.108;19.942;2023-02-28T16:11:38;40.20;;;18.10;;
60919;SDS011;59039;52.108;19.942;2023-02-28T16:14:08;58.30;;;22.10;;
60919;SDS011;59039;52.108;19.942;2023-02-28T16:16:41;81.50;;;27.80;;
60919;SDS011;59039;52.108;19.942;2023-02-28T16:19:09;70.90;;;23.90;;
60919;SDS011;59039;52.108;19.942;2023-02-28T16:21:34;65.40;;;24.10;;
60919;SDS011;59039;52.108;19.942;2023-02-28T16:24:08;62.00;;;27.50;;
60919;SDS011;59039;52.108;19.942;2023-02-28T16:26:37;54.60;;;24.90;;
60919;SDS011;59039;52.108;19.942;2023-02-28T16:29:25;39.90;;;18.40;;
60919;SDS011;59039;52.108;19.942;2023-02-28T16:31:57;53.20;;;20.80;;
60919;SDS011;59039;52.108;19.942;2023-02-28T16:34:32;57.30;;;23.20;;
60919;SDS011;59039;52.108;19.942;2023-02-28T16:37:00;49.00;;;21.80;;
60919;SDS011;59039;52.108;19.942;2023-02-28T16:39:40;47.70;;;20.50;;
60919;SDS011;59039;52.108;19.942;2023-02-28T16:42:07;71.10;;;25.90;;
60919;SDS011;59039;52.108;19.942;2023-02-28T16:44:39;112.70;;;36.90;;
60919;SDS011;59039;52.108;19.942;2023-02-28T16:47:05;180.50;;;52.30;;
60919;SDS011;59039;52.108;19.942;2023-02-28T16:49:43;236.20;;;67.30;;
60919;SDS011;59039;52.108;19.942;2023-02-28T16:52:10;224.50;;;68.70;;
60919;SDS011;59039;52.108;19.942;2023-02-28T16:54:36;214.40;;;63.50;;
60919;SDS011;59039;52.108;19.942;2023-02-28T16:57:01;178.00;;;56.30;;
60919;SDS011;59039;52.108;19.942;2023-02-28T16:59:42;167.90;;;50.00;;
60919;SDS011;59039;52.108;19.942;2023-02-28T17:02:11;136.50;;;44.00;;
60919;SDS011;59039;52.108;19.942;2023-02-28T17:04:39;166.90;;;57.70;;
60919;SDS011;59039;52.108;19.942;2023-02-28T17:07:10;267.40;;;95.40;;
60919;SDS011;59039;52.108;19.942;2023-02-28T17:09:38;281.50;;;97.10;;
60919;SDS011;59039;52.108;19.942;2023-02-28T17:12:03;296.90;;;108.30;;
60919;SDS011;59039;52.108;19.942;2023-02-28T17:14:32;325.60;;;119.10;;
60919;SDS011;59039;52.108;19.942;2023-02-28T17:17:00;335.40;;;120.40;;
60919;SDS011;59039;52.108;19.942;2023-02-28T17:19:26;318.70;;;112.80;;
60919;SDS011;59039;52.108;19.942;2023-02-28T17:22:00;363.30;;;128.70;;
60919;SDS011;59039;52.108;19.942;2023-02-28T17:24:25;335.80;;;121.70;;
60919;SDS011;59039;52.108;19.942;2023-02-28T17:27:14;325.70;;;113.80;;